createdAt,value
2018-05-29T00:02:26.117Z,101457.27
2018-05-29T00:04:53.679Z,101452.50
2018-05-29T00:07:21.194Z,101455.77
2018-05-29T00:09:48.770Z,101456.24
2018-05-29T00:12:16.368Z,101453.51
2018-05-29T00:14:44.183Z,101453.09
2018-05-29T00:17:11.690Z,101452.39
2018-05-29T00:19:39.315Z,101449.91
2018-05-29T00:22:06.835Z,101446.73
2018-05-29T00:24:34.397Z,101447.23
2018-05-29T00:27:02.061Z,101440.25
2018-05-29T00:29:29.581Z,101442.66
2018-05-29T00:31:57.105Z,101431.44
2018-05-29T00:34:24.645Z,101436.73
2018-05-29T00:36:52.192Z,101426.31
2018-05-29T00:39:19.737Z,101426.41
2018-05-29T00:41:47.361Z,101423.25
2018-05-29T00:44:14.910Z,101425.28
2018-05-29T00:46:42.452Z,101419.63
2018-05-29T00:49:10.038Z,101421.77
2018-05-29T00:51:37.604Z,101423.22
2018-05-29T00:54:05.112Z,101425.75
2018-05-29T00:56:32.672Z,101417.27
2018-05-29T00:59:00.226Z,101416.94
2018-05-29T01:01:27.737Z,101417.48
2018-05-29T01:03:55.281Z,101415.00
2018-05-29T01:06:22.803Z,101414.03
2018-05-29T01:08:50.317Z,101415.07
2018-05-29T01:11:17.889Z,101409.11
2018-05-29T01:13:45.413Z,101409.60
2018-05-29T01:16:12.952Z,101403.31
2018-05-29T01:18:40.514Z,101400.14
2018-05-29T01:21:08.034Z,101398.06
2018-05-29T01:23:35.552Z,101390.91
2018-05-29T01:26:03.314Z,101386.39
2018-05-29T01:28:30.818Z,101395.07
2018-05-29T01:30:58.406Z,101389.45
2018-05-29T01:33:25.971Z,101393.54
2018-05-29T01:35:53.501Z,101392.70
2018-05-29T01:38:21.165Z,101393.12
2018-05-29T01:40:48.709Z,101387.33
2018-05-29T01:43:16.234Z,101382.11
2018-05-29T01:45:43.980Z,101385.86
2018-05-29T01:48:11.531Z,101380.77
2018-05-29T01:50:39.363Z,101383.25
2018-05-29T01:53:06.903Z,101380.28
2018-05-29T01:55:34.449Z,101384.02
2018-05-29T01:58:01.998Z,101376.61
2018-05-29T02:00:29.806Z,101376.64
2018-05-29T02:02:57.406Z,101379.06
2018-05-29T02:05:24.928Z,101380.62
2018-05-29T02:07:52.446Z,101384.82
2018-05-29T02:10:20.048Z,101385.02
2018-05-29T02:12:47.596Z,101383.00
2018-05-29T02:15:15.186Z,101384.17
2018-05-29T02:17:42.880Z,101386.84
2018-05-29T02:20:10.441Z,101385.61
2018-05-29T02:22:37.964Z,101383.23
2018-05-29T02:25:06.085Z,101380.98
2018-05-29T02:27:33.632Z,101383.70
2018-05-29T02:30:01.146Z,101381.70
2018-05-29T02:32:28.791Z,101377.31
2018-05-29T02:34:56.344Z,101373.69
2018-05-29T02:37:24.234Z,101372.33
2018-05-29T02:39:52.107Z,101377.55
2018-05-29T02:42:19.665Z,101368.16
2018-05-29T02:44:48.349Z,101362.94
2018-05-29T02:47:15.905Z,101366.09
2018-05-29T02:49:43.804Z,101367.67
2018-05-29T02:52:11.331Z,101372.17
2018-05-29T02:54:38.869Z,101373.02
2018-05-29T02:57:06.376Z,101377.81
2018-05-29T02:59:34.140Z,101376.69
2018-05-29T03:02:02.288Z,101367.73
2018-05-29T03:04:29.814Z,101363.05
2018-05-29T03:06:57.336Z,101368.12
2018-05-29T03:09:25.001Z,101365.81
2018-05-29T03:11:53.278Z,101365.34
2018-05-29T03:14:21.525Z,101362.13
2018-05-29T03:16:49.418Z,101363.38
2018-05-29T03:19:16.946Z,101358.52
2018-05-29T03:21:44.463Z,101362.41
2018-05-29T03:24:11.999Z,101363.23
2018-05-29T03:26:40.123Z,101370.81
2018-05-29T03:29:07.702Z,101367.27
2018-05-29T03:31:35.602Z,101368.50
2018-05-29T03:34:03.397Z,101367.92
2018-05-29T03:36:30.920Z,101368.03
2018-05-29T03:38:58.476Z,101378.74
2018-05-29T03:41:25.995Z,101368.09
2018-05-29T03:43:53.565Z,101366.84
2018-05-29T03:46:21.172Z,101367.92
2018-05-29T03:48:48.725Z,101370.85
2018-05-29T03:51:16.268Z,101363.58
2018-05-29T03:53:44.047Z,101358.34
2018-05-29T03:56:11.613Z,101353.89
2018-05-29T03:58:39.134Z,101355.90
2018-05-29T04:01:06.674Z,101356.88
2018-05-29T04:03:34.412Z,101360.13
2018-05-29T04:06:02.154Z,101359.89
2018-05-29T04:08:29.711Z,101358.77
2018-05-29T04:10:57.236Z,101359.89
2018-05-29T04:13:24.748Z,101368.56
2018-05-29T04:15:52.348Z,101365.33
2018-05-29T04:18:19.853Z,101366.75
2018-05-29T04:20:47.553Z,101368.23
2018-05-29T04:23:15.098Z,101371.95
2018-05-29T04:25:42.599Z,101370.06
2018-05-29T04:28:10.506Z,101370.22
2018-05-29T04:30:38.049Z,101368.03
2018-05-29T04:33:05.598Z,101368.70
2018-05-29T04:35:33.200Z,101368.11
2018-05-29T04:38:00.757Z,101366.66
2018-05-29T04:40:28.361Z,101367.24
2018-05-29T04:42:55.893Z,101370.14
2018-05-29T04:45:23.449Z,101370.58
2018-05-29T04:47:51.115Z,101374.00
2018-05-29T04:50:18.647Z,101371.23
2018-05-29T04:52:46.421Z,101372.78
2018-05-29T04:55:13.965Z,101380.22
2018-05-29T04:57:41.482Z,101379.53
2018-05-29T05:00:09.052Z,101373.14
2018-05-29T05:02:36.616Z,101375.52
2018-05-29T05:05:04.160Z,101373.88
2018-05-29T05:07:32.198Z,101377.25
2018-05-29T05:09:59.701Z,101375.48
2018-05-29T05:12:27.541Z,101380.22
2018-05-29T05:14:55.100Z,101373.02
2018-05-29T05:17:22.616Z,101372.57
2018-05-29T05:19:50.141Z,101377.80
2018-05-29T05:22:17.669Z,101381.69
2018-05-29T05:24:45.199Z,101380.34
2018-05-29T05:27:12.746Z,101375.95
2018-05-29T05:29:40.292Z,101380.87
2018-05-29T05:32:07.849Z,101380.52
2018-05-29T05:34:35.353Z,101382.05
2018-05-29T05:37:02.902Z,101381.44
2018-05-29T05:39:30.431Z,101376.34
2018-05-29T05:41:57.950Z,101374.38
2018-05-29T05:44:25.820Z,101374.19
2018-05-29T05:46:53.386Z,101378.26
2018-05-29T05:49:20.902Z,101370.81
2018-05-29T05:51:48.639Z,101377.73
2018-05-29T05:54:16.139Z,101378.07
2018-05-29T05:56:43.668Z,101373.38
2018-05-29T05:59:11.603Z,101374.59
2018-05-29T06:01:40.485Z,101371.91
2018-05-29T06:04:08.028Z,101374.77
2018-05-29T06:06:35.581Z,101374.73
2018-05-29T06:09:03.477Z,101373.38
2018-05-29T06:11:30.992Z,101378.55
2018-05-29T06:13:58.542Z,101379.46
2018-05-29T06:16:27.349Z,101379.55
2018-05-29T06:18:55.994Z,101378.89
2018-05-29T06:21:27.549Z,101380.61
2018-05-29T06:23:56.074Z,101384.92
2018-05-29T06:26:26.737Z,101383.11
2018-05-29T06:28:54.266Z,101381.41
2018-05-29T06:31:23.708Z,101373.99
2018-05-29T06:33:53.437Z,101381.59
2018-05-29T06:36:22.449Z,101379.62
2018-05-29T06:38:51.472Z,101378.66
2018-05-29T06:41:19.883Z,101376.92
2018-05-29T06:43:48.773Z,101384.33
2018-05-29T06:46:18.854Z,101388.12
2018-05-29T06:48:47.363Z,101376.94
2018-05-29T06:51:14.908Z,101379.53
2018-05-29T06:53:42.453Z,101376.67
2018-05-29T06:56:10.751Z,101374.70
2018-05-29T06:58:41.454Z,101367.46
2018-05-29T07:01:10.153Z,101367.86
2018-05-29T07:03:38.609Z,101366.16
2018-05-29T07:06:08.692Z,101365.27
2018-05-29T07:08:36.215Z,101357.34
2018-05-29T07:11:04.027Z,101358.31
2018-05-29T07:13:31.612Z,101355.09
2018-05-29T07:15:59.233Z,101352.74
2018-05-29T07:18:26.733Z,101353.70
2018-05-29T07:20:54.290Z,101343.54
2018-05-29T07:23:21.802Z,101345.59
2018-05-29T07:25:49.342Z,101336.48
2018-05-29T07:28:16.893Z,101340.05
2018-05-29T07:30:44.410Z,101339.97
2018-05-29T07:33:11.951Z,101324.23
2018-05-29T07:35:39.522Z,101324.13
2018-05-29T07:38:07.114Z,101333.34
2018-05-29T07:40:34.644Z,101328.70
2018-05-29T07:43:02.521Z,101320.63
2018-05-29T07:45:30.711Z,101318.81
2018-05-29T07:47:58.242Z,101311.63
2018-05-29T07:50:25.799Z,101306.67
2018-05-29T07:52:53.322Z,101308.46
2018-05-29T07:55:20.868Z,101305.92
2018-05-29T07:57:48.577Z,101300.06
2018-05-29T08:00:16.114Z,101302.14
2018-05-29T08:02:43.630Z,101294.52
2018-05-29T08:05:11.181Z,101292.17
2018-05-29T08:07:38.704Z,101294.87
2018-05-29T08:10:06.339Z,101290.53
2018-05-29T08:12:33.872Z,101283.97
2018-05-29T08:15:01.383Z,101279.23
2018-05-29T08:17:28.889Z,101284.26
2018-05-29T08:19:56.421Z,101284.72
2018-05-29T08:22:23.941Z,101287.42
2018-05-29T08:24:51.461Z,101283.59
2018-05-29T08:27:18.994Z,101284.69
2018-05-29T08:29:46.590Z,101284.53
2018-05-29T08:32:14.122Z,101281.50
2018-05-29T08:34:43.255Z,101282.80
2018-05-29T08:37:10.797Z,101276.20
2018-05-29T08:39:38.347Z,101270.35
2018-05-29T08:42:05.891Z,101268.98
2018-05-29T08:44:33.401Z,101266.51
2018-05-29T08:47:00.961Z,101264.02
2018-05-29T08:49:28.810Z,101267.05
2018-05-29T08:51:56.329Z,101264.31
2018-05-29T08:54:23.871Z,101270.61
2018-05-29T08:56:51.452Z,101268.80
2018-05-29T08:59:18.934Z,101254.94
2018-05-29T09:01:46.427Z,101265.14
2018-05-29T09:04:13.992Z,101262.03
2018-05-29T09:06:41.593Z,101253.48
2018-05-29T09:09:09.128Z,101252.89
2018-05-29T09:11:37.387Z,101247.20
2018-05-29T09:14:07.607Z,101245.40
2018-05-29T09:16:41.042Z,101246.24
2018-05-29T09:19:08.549Z,101247.78
2018-05-29T09:21:36.049Z,101244.16
2018-05-29T09:24:03.601Z,101253.66
2018-05-29T09:26:31.106Z,101241.83
2018-05-29T09:28:58.617Z,101240.58
2018-05-29T09:31:26.192Z,101243.12
2018-05-29T09:33:53.705Z,101243.46
2018-05-29T09:36:21.226Z,101233.23
2018-05-29T09:38:48.775Z,101235.92
2018-05-29T09:41:16.295Z,101234.88
2018-05-29T09:43:43.809Z,101225.80
2018-05-29T09:46:11.352Z,101224.47
2018-05-29T09:48:38.876Z,101224.19
2018-05-29T09:51:06.431Z,101224.81
2018-05-29T09:53:33.959Z,101224.36
2018-05-29T09:56:01.724Z,101219.64
2018-05-29T09:58:29.244Z,101231.53
2018-05-29T10:00:56.780Z,101210.06
2018-05-29T10:03:24.299Z,101214.98
2018-05-29T10:05:52.097Z,101209.52
2018-05-29T10:08:19.627Z,101213.20
2018-05-29T10:10:47.429Z,101213.62
2018-05-29T10:13:14.961Z,101196.95
2018-05-29T10:15:42.507Z,101209.53
2018-05-29T10:18:10.043Z,101210.98
2018-05-29T10:20:37.554Z,101210.84
2018-05-29T10:23:05.089Z,101204.27
2018-05-29T10:25:32.623Z,101199.70
2018-05-29T10:28:00.129Z,101202.87
2018-05-29T10:30:27.693Z,101201.09
2018-05-29T10:32:55.215Z,101199.86
2018-05-29T10:35:22.735Z,101195.38
2018-05-29T10:37:50.303Z,101196.88
2018-05-29T10:40:18.153Z,101202.09
2018-05-29T10:42:45.665Z,101188.30
2018-05-29T10:45:13.358Z,101186.64
2018-05-29T10:47:40.962Z,101177.75
2018-05-29T10:50:08.483Z,101166.78
2018-05-29T10:52:37.088Z,101164.94
2018-05-29T10:55:04.768Z,101164.94
2018-05-29T10:57:32.281Z,101167.35
2018-05-29T10:59:59.842Z,101166.44
2018-05-29T11:02:27.447Z,101161.57
2018-05-29T11:04:54.955Z,101160.04
2018-05-29T11:07:22.773Z,101161.14
2018-05-29T11:09:50.550Z,101155.19
2018-05-29T11:12:18.057Z,101163.47
2018-05-29T11:14:45.842Z,101152.07
2018-05-29T11:17:13.434Z,101158.78
2018-05-29T11:19:40.940Z,101156.25
2018-05-29T11:22:08.648Z,101150.38
2018-05-29T11:24:36.312Z,101142.52
2018-05-29T11:27:03.821Z,101142.91
2018-05-29T11:29:31.411Z,101136.40
2018-05-29T11:31:59.057Z,101135.34
2018-05-29T11:34:26.585Z,101122.02
2018-05-29T11:36:54.184Z,101128.31
2018-05-29T11:39:21.720Z,101125.97
2018-05-29T11:41:49.528Z,101123.88
2018-05-29T11:44:17.085Z,101115.68
2018-05-29T11:46:45.497Z,101110.70
2018-05-29T11:49:13.338Z,101109.02
2018-05-29T11:51:40.983Z,101108.30
2018-05-29T11:54:08.790Z,101108.95
2018-05-29T11:56:36.311Z,101109.02
2018-05-29T11:59:03.867Z,101109.69
2018-05-29T12:01:31.389Z,101107.77
2018-05-29T12:03:58.893Z,101104.55
2018-05-29T12:06:26.453Z,101109.16
2018-05-29T12:08:53.993Z,101102.79
2018-05-29T12:11:21.608Z,101098.34
2018-05-29T12:13:49.211Z,101098.74
2018-05-29T12:16:16.747Z,101096.20
2018-05-29T12:18:44.267Z,101090.64
2018-05-29T12:21:11.919Z,101079.23
2018-05-29T12:23:39.430Z,101088.17
2018-05-29T12:26:07.075Z,101078.36
2018-05-29T12:28:34.594Z,101079.64
2018-05-29T12:31:02.089Z,101073.55
2018-05-29T12:33:29.698Z,101073.89
2018-05-29T12:35:57.289Z,101079.30
2018-05-29T12:38:24.803Z,101067.33
2018-05-29T12:40:52.337Z,101069.91
2018-05-29T12:43:19.906Z,101056.70
2018-05-29T12:45:47.556Z,101064.56
2018-05-29T12:48:15.188Z,101068.49
2018-05-29T12:50:42.710Z,101063.63
2018-05-29T12:53:11.177Z,101057.36
2018-05-29T12:55:38.661Z,101061.05
2018-05-29T12:58:06.221Z,101054.41
2018-05-29T13:00:33.726Z,101055.86
2018-05-29T13:03:01.237Z,101047.55
2018-05-29T13:05:29.473Z,101042.86
2018-05-29T13:07:57.324Z,101048.59
2018-05-29T13:10:25.119Z,101042.25
2018-05-29T13:12:52.960Z,101045.89
2018-05-29T13:15:20.469Z,101037.25
2018-05-29T13:17:48.005Z,101039.15
2018-05-29T13:20:15.565Z,101034.23
2018-05-29T13:22:43.089Z,101034.23
2018-05-29T13:25:10.621Z,101032.28
2018-05-29T13:27:38.152Z,101019.91
2018-05-29T13:30:05.709Z,101011.39
2018-05-29T13:32:33.568Z,101012.95
2018-05-29T13:35:01.081Z,101007.34
2018-05-29T13:37:29.082Z,101004.41
2018-05-29T13:39:56.635Z,101004.90
2018-05-29T13:42:24.156Z,101001.95
2018-05-29T13:44:51.644Z,101000.93
2018-05-29T13:47:19.157Z,101004.45
2018-05-29T13:49:46.710Z,100990.97
2018-05-29T13:52:14.539Z,100990.57
2018-05-29T13:54:42.058Z,100998.03
2018-05-29T13:57:09.793Z,100982.05
2018-05-29T13:59:37.346Z,100976.41
2018-05-29T14:02:04.854Z,100981.94
2018-05-29T14:04:32.537Z,100982.37
2018-05-29T14:07:00.064Z,100974.77
2018-05-29T14:09:27.875Z,100972.31
2018-05-29T14:11:55.411Z,100965.27
2018-05-29T14:14:22.911Z,100964.84
2018-05-29T14:16:50.421Z,100962.27
2018-05-29T14:19:17.971Z,100955.63
2018-05-29T14:21:45.474Z,100958.66
2018-05-29T14:24:13.153Z,100955.22
2018-05-29T14:26:40.737Z,100954.15
2018-05-29T14:29:08.572Z,100957.34
2018-05-29T14:31:36.167Z,100957.67
2018-05-29T14:34:03.998Z,100954.85
2018-05-29T14:36:31.492Z,100953.41
2018-05-29T14:38:59.323Z,100952.92
2018-05-29T14:41:26.918Z,100948.02
2018-05-29T14:43:54.712Z,100950.73
2018-05-29T14:46:22.073Z,100941.80
2018-05-29T14:48:49.655Z,100936.78
2018-05-29T14:51:17.239Z,100938.37
2018-05-29T14:53:44.857Z,100933.98
2018-05-29T14:56:12.385Z,100943.46
2018-05-29T14:58:39.964Z,100936.59
2018-05-29T15:01:07.999Z,100938.30
2018-05-29T15:03:35.638Z,100924.09
2018-05-29T15:06:03.188Z,100922.06
2018-05-29T15:08:30.710Z,100922.64
2018-05-29T15:10:58.291Z,100911.23
2018-05-29T15:13:25.824Z,100916.78
2018-05-29T15:15:53.376Z,100910.38
2018-05-29T15:18:21.563Z,100912.75
2018-05-29T15:20:49.140Z,100907.45
2018-05-29T15:23:16.664Z,100902.75
2018-05-29T15:25:44.211Z,100896.64
2018-05-29T15:28:11.822Z,100887.55
2018-05-29T15:30:39.375Z,100889.09
2018-05-29T15:33:07.196Z,100885.67
2018-05-29T15:35:34.720Z,100870.80
2018-05-29T15:38:02.230Z,100866.19
2018-05-29T15:40:29.825Z,100866.86
2018-05-29T15:42:57.347Z,100867.98
2018-05-29T15:45:24.875Z,100868.34
2018-05-29T15:47:52.427Z,100867.84
2018-05-29T15:50:19.960Z,100862.55
2018-05-29T15:52:47.483Z,100867.27
2018-05-29T15:55:15.119Z,100859.20
2018-05-29T15:57:42.640Z,100864.10
2018-05-29T16:00:10.155Z,100865.48
2018-05-29T16:02:37.686Z,100869.70
2018-05-29T16:05:05.268Z,100860.31
2018-05-29T16:07:32.779Z,100864.59
2018-05-29T16:10:00.340Z,100863.31
2018-05-29T16:12:28.111Z,100864.80
2018-05-29T16:14:55.639Z,100861.86
2018-05-29T16:17:23.188Z,100861.23
2018-05-29T16:19:50.763Z,100865.91
2018-05-29T16:22:18.360Z,100862.14
2018-05-29T16:24:45.914Z,100863.59
2018-05-29T16:27:13.457Z,100866.22
2018-05-29T16:29:40.983Z,100866.00
2018-05-29T16:32:08.580Z,100851.34
2018-05-29T16:34:36.213Z,100866.38
2018-05-29T16:37:03.970Z,100853.25
2018-05-29T16:39:31.536Z,100852.98
2018-05-29T16:41:59.188Z,100857.81
2018-05-29T16:44:27.067Z,100862.26
2018-05-29T16:46:54.655Z,100865.42
2018-05-29T16:49:22.422Z,100865.77
2018-05-29T16:51:49.941Z,100861.89
2018-05-29T16:54:17.737Z,100859.59
2018-05-29T16:56:45.266Z,100864.20
2018-05-29T16:59:12.770Z,100864.03
2018-05-29T17:01:40.318Z,100854.68
2018-05-29T17:04:07.922Z,100858.30
2018-05-29T17:06:35.441Z,100867.23
2018-05-29T17:09:03.039Z,100860.48
2018-05-29T17:11:30.689Z,100865.64
2018-05-29T17:13:59.399Z,100862.61
2018-05-29T17:16:27.701Z,100868.31
2018-05-29T17:18:55.368Z,100862.06
2018-05-29T17:21:22.924Z,100867.67
2018-05-29T17:23:50.545Z,100863.34
2018-05-29T17:26:18.071Z,100854.97
2018-05-29T17:28:45.624Z,100866.22
2018-05-29T17:31:13.183Z,100859.76
2018-05-29T17:33:40.711Z,100866.21
2018-05-29T17:36:09.029Z,100869.02
2018-05-29T17:38:36.596Z,100870.25
2018-05-29T17:41:04.170Z,100864.70
2018-05-29T17:43:32.270Z,100867.77
2018-05-29T17:45:59.864Z,100865.17
2018-05-29T17:48:27.660Z,100861.80
2018-05-29T17:50:55.346Z,100865.45
2018-05-29T17:53:22.906Z,100861.81
2018-05-29T17:55:50.440Z,100867.81
2018-05-29T17:58:17.969Z,100869.66
2018-05-29T18:00:45.560Z,100872.26
2018-05-29T18:03:13.101Z,100876.54
2018-05-29T18:05:40.724Z,100875.69
2018-05-29T18:08:08.292Z,100876.50
2018-05-29T18:10:36.149Z,100879.38
2018-05-29T18:13:03.660Z,100887.67
2018-05-29T18:15:31.194Z,100884.92
2018-05-29T18:17:58.870Z,100881.24
2018-05-29T18:20:26.805Z,100875.95
2018-05-29T18:22:54.724Z,100875.70
2018-05-29T18:25:22.247Z,100874.21
2018-05-29T18:27:49.781Z,100875.92
2018-05-29T18:30:17.389Z,100874.13
2018-05-29T18:32:44.923Z,100877.92
2018-05-29T18:35:12.532Z,100884.39
2018-05-29T18:37:40.084Z,100879.67
2018-05-29T18:40:07.604Z,100882.83
2018-05-29T18:42:35.139Z,100891.56
2018-05-29T18:45:02.675Z,100892.62
2018-05-29T18:47:30.183Z,100887.98
2018-05-29T18:49:57.703Z,100902.02
2018-05-29T18:52:25.259Z,100900.55
2018-05-29T18:54:52.819Z,100901.29
2018-05-29T18:57:20.444Z,100909.28
2018-05-29T18:59:48.010Z,100915.69
2018-05-29T19:02:16.366Z,100913.53
2018-05-29T19:04:43.910Z,100914.97
2018-05-29T19:07:11.453Z,100921.16
2018-05-29T19:09:38.984Z,100923.53
2018-05-29T19:12:06.524Z,100930.64
2018-05-29T19:14:34.188Z,100938.42
2018-05-29T19:17:01.737Z,100936.38
2018-05-29T19:19:29.233Z,100930.55
2018-05-29T19:21:56.811Z,100933.69
2018-05-29T19:24:24.339Z,100936.42
2018-05-29T19:26:51.862Z,100939.76
2018-05-29T19:29:19.401Z,100935.11
2018-05-29T19:31:46.931Z,100941.85
2018-05-29T19:34:14.458Z,100942.70
2018-05-29T19:36:42.015Z,100946.02
2018-05-29T19:39:09.539Z,100945.95
2018-05-29T19:41:37.042Z,100947.36
2018-05-29T19:44:04.615Z,100952.49
2018-05-29T19:46:32.151Z,100955.38
2018-05-29T19:48:59.666Z,100956.61
2018-05-29T19:51:27.218Z,100955.28
2018-05-29T19:53:54.767Z,100956.88
2018-05-29T19:56:22.287Z,100952.25
2018-05-29T19:58:49.813Z,100955.84
2018-05-29T20:01:17.367Z,100946.92
2018-05-29T20:03:46.344Z,100945.98
2018-05-29T20:06:13.906Z,100950.31
2018-05-29T20:08:41.486Z,100950.58
2018-05-29T20:11:08.999Z,100955.06
2018-05-29T20:13:36.588Z,100950.81
2018-05-29T20:16:04.125Z,100947.54
2018-05-29T20:18:31.657Z,100946.65
2018-05-29T20:20:59.475Z,100947.48
2018-05-29T20:23:27.004Z,100945.23
2018-05-29T20:25:54.525Z,100944.61
2018-05-29T20:28:22.078Z,100939.98
2018-05-29T20:30:49.586Z,100935.78
2018-05-29T20:33:17.118Z,100936.21
2018-05-29T20:35:44.747Z,100930.62
2018-05-29T20:38:12.415Z,100928.87
2018-05-29T20:40:39.935Z,100938.23
2018-05-29T20:43:07.475Z,100929.63
2018-05-29T20:45:35.016Z,100930.50
2018-05-29T20:48:02.828Z,100929.19
2018-05-29T20:50:30.461Z,100935.52
2018-05-29T20:52:57.975Z,100929.06
2018-05-29T20:55:25.599Z,100928.57
2018-05-29T20:57:53.244Z,100927.83
2018-05-29T21:00:21.105Z,100931.00
2018-05-29T21:02:48.783Z,100923.24
2018-05-29T21:05:16.565Z,100921.75
2018-05-29T21:07:44.128Z,100921.52
2018-05-29T21:10:11.655Z,100918.17
2018-05-29T21:12:39.272Z,100917.53
2018-05-29T21:15:06.799Z,100913.44
2018-05-29T21:17:34.602Z,100915.23
2018-05-29T21:20:02.202Z,100911.65
2018-05-29T21:22:29.744Z,100912.25
2018-05-29T21:24:57.286Z,100907.60
2018-05-29T21:27:24.840Z,100904.50
2018-05-29T21:29:52.363Z,100910.64
2018-05-29T21:32:19.883Z,100913.40
2018-05-29T21:34:47.507Z,100907.70
2018-05-29T21:37:15.289Z,100907.61
2018-05-29T21:39:42.797Z,100902.69
2018-05-29T21:42:10.334Z,100897.91
2018-05-29T21:44:37.844Z,100897.67
2018-05-29T21:47:05.365Z,100901.66
2018-05-29T21:49:32.908Z,100906.77
2018-05-29T21:52:00.438Z,100902.44
2018-05-29T21:54:28.027Z,100901.20
2018-05-29T21:56:55.545Z,100901.90
2018-05-29T21:59:23.061Z,100903.86
2018-05-29T22:01:50.626Z,100902.77
2018-05-29T22:04:18.204Z,100900.44
2018-05-29T22:06:45.750Z,100899.92
2018-05-29T22:09:13.491Z,100900.08
2018-05-29T22:11:41.009Z,100894.23
2018-05-29T22:14:08.534Z,100902.05
2018-05-29T22:16:36.391Z,100901.08
2018-05-29T22:19:03.926Z,100908.48
2018-05-29T22:21:31.457Z,100902.19
2018-05-29T22:23:58.981Z,100896.30
2018-05-29T22:26:26.511Z,100896.89
2018-05-29T22:28:54.038Z,100898.70
2018-05-29T22:31:21.640Z,100901.58
2018-05-29T22:33:49.305Z,100906.81
2018-05-29T22:36:16.847Z,100907.49
2018-05-29T22:38:44.488Z,100908.45
2018-05-29T22:41:12.005Z,100903.02
2018-05-29T22:43:39.533Z,100910.57
2018-05-29T22:46:07.089Z,100910.84
2018-05-29T22:48:34.856Z,100905.64
2018-05-29T22:51:02.422Z,100914.27
2018-05-29T22:53:29.993Z,100911.00
2018-05-29T22:55:57.542Z,100909.12
2018-05-29T22:58:25.071Z,100913.91
2018-05-29T23:00:52.621Z,100912.95
2018-05-29T23:03:20.140Z,100909.83
2018-05-29T23:05:47.654Z,100911.73
2018-05-29T23:08:15.215Z,100916.09
2018-05-29T23:10:42.717Z,100913.77
2018-05-29T23:13:10.326Z,100916.27
2018-05-29T23:15:37.936Z,100915.30
2018-05-29T23:18:05.441Z,100907.80
2018-05-29T23:20:32.956Z,100905.06
2018-05-29T23:23:00.494Z,100909.59
2018-05-29T23:25:28.015Z,100905.34
2018-05-29T23:27:55.543Z,100902.75
2018-05-29T23:30:23.106Z,100904.25
2018-05-29T23:32:50.660Z,100901.81
2018-05-29T23:35:18.186Z,100903.45
2018-05-29T23:37:45.772Z,100909.45
2018-05-29T23:40:13.300Z,100913.58
2018-05-29T23:42:40.811Z,100913.71
2018-05-29T23:45:08.955Z,100908.09
2018-05-29T23:47:36.473Z,100912.75
2018-05-29T23:50:05.138Z,100919.19
2018-05-29T23:52:32.681Z,100918.91
2018-05-29T23:55:00.328Z,100916.46
2018-05-29T23:57:27.860Z,100917.41
2018-05-29T23:59:55.451Z,100919.04
